sensor_id;sensor_type;location;lat;lon;timestamp;P1;durP1;ratioP1;P2;durP2;ratioP2
58242;SDS011;50118;53.232;8.252;2023-01-04T00:01:04;5.88;;;2.80;;
58242;SDS011;50118;53.232;8.252;2023-01-04T00:03:31;7.85;;;2.88;;
58242;SDS011;50118;53.232;8.252;2023-01-04T00:05:58;5.97;;;2.55;;
58242;SDS011;50118;53.232;8.252;2023-01-04T00:08:26;5.47;;;2.65;;
58242;SDS011;50118;53.232;8.252;2023-01-04T00:10:52;7.40;;;2.55;;
58242;SDS011;50118;53.232;8.252;2023-01-04T00:13:17;5.82;;;2.35;;
58242;SDS011;50118;53.232;8.252;2023-01-04T00:15:42;7.45;;;2.58;;
58242;SDS011;50118;53.232;8.252;2023-01-04T00:18:08;7.07;;;2.80;;
58242;SDS011;50118;53.232;8.252;2023-01-04T00:20:33;4.68;;;2.25;;
58242;SDS011;50118;53.232;8.252;2023-01-04T00:22:59;5.43;;;2.80;;
58242;SDS011;50118;53.232;8.252;2023-01-04T00:25:24;6.70;;;2.40;;
58242;SDS011;50118;53.232;8.252;2023-01-04T00:27:50;8.43;;;2.65;;
58242;SDS011;50118;53.232;8.252;2023-01-04T00:30:16;7.90;;;2.50;;
58242;SDS011;50118;53.232;8.252;2023-01-04T00:32:42;5.70;;;2.50;;
58242;SDS011;50118;53.232;8.252;2023-01-04T00:35:08;5.72;;;2.30;;
58242;SDS011;50118;53.232;8.252;2023-01-04T00:37:34;5.07;;;2.20;;
58242;SDS011;50118;53.232;8.252;2023-01-04T00:39:59;7.70;;;2.15;;
58242;SDS011;50118;53.232;8.252;2023-01-04T00:42:25;5.55;;;2.10;;
58242;SDS011;50118;53.232;8.252;2023-01-04T00:44:50;5.88;;;2.00;;
58242;SDS011;50118;53.232;8.252;2023-01-04T00:47:16;5.55;;;2.20;;
58242;SDS011;50118;53.232;8.252;2023-01-04T00:49:41;5.22;;;2.05;;
58242;SDS011;50118;53.232;8.252;2023-01-04T00:52:07;5.57;;;2.17;;
58242;SDS011;50118;53.232;8.252;2023-01-04T00:54:32;6.35;;;2.00;;
58242;SDS011;50118;53.232;8.252;2023-01-04T00:56:57;9.10;;;2.20;;
58242;SDS011;50118;53.232;8.252;2023-01-04T00:59:25;4.15;;;1.70;;
58242;SDS011;50118;53.232;8.252;2023-01-04T01:01:51;5.70;;;1.98;;
58242;SDS011;50118;53.232;8.252;2023-01-04T01:04:18;5.75;;;1.90;;
58242;SDS011;50118;53.232;8.252;2023-01-04T01:06:45;6.10;;;2.00;;
58242;SDS011;50118;53.232;8.252;2023-01-04T01:09:11;5.45;;;2.13;;
58242;SDS011;50118;53.232;8.252;2023-01-04T01:11:37;5.05;;;1.80;;
58242;SDS011;50118;53.232;8.252;2023-01-04T01:14:04;5.85;;;2.20;;
58242;SDS011;50118;53.232;8.252;2023-01-04T01:16:30;3.90;;;1.85;;
58242;SDS011;50118;53.232;8.252;2023-01-04T01:18:56;4.65;;;1.98;;
58242;SDS011;50118;53.232;8.252;2023-01-04T01:21:22;4.70;;;1.77;;
58242;SDS011;50118;53.232;8.252;2023-01-04T01:23:49;6.22;;;1.77;;
58242;SDS011;50118;53.232;8.252;2023-01-04T01:26:17;6.13;;;1.98;;
58242;SDS011;50118;53.232;8.252;2023-01-04T01:28:44;4.15;;;1.77;;
58242;SDS011;50118;53.232;8.252;2023-01-04T01:31:11;6.47;;;2.00;;
58242;SDS011;50118;53.232;8.252;2023-01-04T01:33:40;7.43;;;1.80;;
58242;SDS011;50118;53.232;8.252;2023-01-04T01:36:06;5.57;;;1.90;;
58242;SDS011;50118;53.232;8.252;2023-01-04T01:38:33;5.13;;;1.80;;
58242;SDS011;50118;53.232;8.252;2023-01-04T01:40:59;4.95;;;1.80;;
58242;SDS011;50118;53.232;8.252;2023-01-04T01:46:15;7.00;;;2.03;;
58242;SDS011;50118;53.232;8.252;2023-01-04T01:48:45;4.20;;;1.70;;
58242;SDS011;50118;53.232;8.252;2023-01-04T01:51:11;4.15;;;1.70;;
58242;SDS011;50118;53.232;8.252;2023-01-04T01:53:39;4.13;;;1.80;;
58242;SDS011;50118;53.232;8.252;2023-01-04T01:56:09;5.80;;;1.85;;
58242;SDS011;50118;53.232;8.252;2023-01-04T01:58:38;6.18;;;1.85;;
58242;SDS011;50118;53.232;8.252;2023-01-04T02:01:08;5.72;;;1.70;;
58242;SDS011;50118;53.232;8.252;2023-01-04T02:03:34;5.07;;;1.80;;
58242;SDS011;50118;53.232;8.252;2023-01-04T02:06:04;3.30;;;1.70;;
58242;SDS011;50118;53.232;8.252;2023-01-04T02:08:32;4.97;;;1.83;;
58242;SDS011;50118;53.232;8.252;2023-01-04T02:11:00;3.67;;;1.60;;
58242;SDS011;50118;53.232;8.252;2023-01-04T02:13:27;5.03;;;1.85;;
58242;SDS011;50118;53.232;8.252;2023-01-04T02:19:05;4.72;;;2.03;;
58242;SDS011;50118;53.232;8.252;2023-01-04T02:25:10;5.07;;;1.95;;
58242;SDS011;50118;53.232;8.252;2023-01-04T02:35:31;5.65;;;1.90;;
58242;SDS011;50118;53.232;8.252;2023-01-04T02:38:19;4.88;;;2.10;;
58242;SDS011;50118;53.232;8.252;2023-01-04T02:40:55;9.00;;;2.50;;
58242;SDS011;50118;53.232;8.252;2023-01-04T02:43:45;5.63;;;2.60;;
58242;SDS011;50118;53.232;8.252;2023-01-04T02:47:00;4.32;;;2.28;;
58242;SDS011;50118;53.232;8.252;2023-01-04T02:49:35;5.72;;;2.40;;
58242;SDS011;50118;53.232;8.252;2023-01-04T02:52:19;7.43;;;2.50;;
58242;SDS011;50118;53.232;8.252;2023-01-04T02:54:47;8.23;;;2.83;;
58242;SDS011;50118;53.232;8.252;2023-01-04T02:57:21;5.88;;;2.70;;
58242;SDS011;50118;53.232;8.252;2023-01-04T03:11:27;5.78;;;2.47;;
58242;SDS011;50118;53.232;8.252;2023-01-04T03:14:18;8.40;;;3.30;;
58242;SDS011;50118;53.232;8.252;2023-01-04T03:16:48;8.40;;;3.20;;
58242;SDS011;50118;53.232;8.252;2023-01-04T03:19:16;7.95;;;3.50;;
58242;SDS011;50118;53.232;8.252;2023-01-04T03:22:04;8.45;;;3.38;;
58242;SDS011;50118;53.232;8.252;2023-01-04T03:24:50;5.05;;;2.97;;
58242;SDS011;50118;53.232;8.252;2023-01-04T03:27:36;6.35;;;3.67;;
58242;SDS011;50118;53.232;8.252;2023-01-04T03:30:21;8.35;;;3.95;;
58242;SDS011;50118;53.232;8.252;2023-01-04T03:33:09;9.45;;;3.95;;
58242;SDS011;50118;53.232;8.252;2023-01-04T03:36:13;8.00;;;3.70;;
58242;SDS011;50118;53.232;8.252;2023-01-04T03:38:51;7.50;;;4.00;;
58242;SDS011;50118;53.232;8.252;2023-01-04T03:41:49;10.25;;;4.63;;
58242;SDS011;50118;53.232;8.252;2023-01-04T03:47:45;8.90;;;4.80;;
58242;SDS011;50118;53.232;8.252;2023-01-04T03:50:43;10.02;;;4.65;;
58242;SDS011;50118;53.232;8.252;2023-01-04T03:53:11;10.30;;;5.00;;
58242;SDS011;50118;53.232;8.252;2023-01-04T03:55:38;6.80;;;4.85;;
58242;SDS011;50118;53.232;8.252;2023-01-04T03:58:07;9.05;;;4.95;;
58242;SDS011;50118;53.232;8.252;2023-01-04T04:00:33;7.75;;;4.95;;
58242;SDS011;50118;53.232;8.252;2023-01-04T04:02:58;8.02;;;4.63;;
58242;SDS011;50118;53.232;8.252;2023-01-04T04:08:16;11.75;;;5.05;;
58242;SDS011;50118;53.232;8.252;2023-01-04T04:10:54;7.47;;;4.47;;
58242;SDS011;50118;53.232;8.252;2023-01-04T04:13:42;10.27;;;5.10;;
58242;SDS011;50118;53.232;8.252;2023-01-04T04:16:08;6.60;;;4.18;;
58242;SDS011;50118;53.232;8.252;2023-01-04T04:18:33;6.57;;;4.45;;
58242;SDS011;50118;53.232;8.252;2023-01-04T04:20:59;7.28;;;5.25;;
58242;SDS011;50118;53.232;8.252;2023-01-04T04:23:24;6.25;;;4.90;;
58242;SDS011;50118;53.232;8.252;2023-01-04T04:25:49;6.18;;;4.88;;
58242;SDS011;50118;53.232;8.252;2023-01-04T04:28:15;6.13;;;4.43;;
58242;SDS011;50118;53.232;8.252;2023-01-04T04:30:40;6.82;;;4.60;;
58242;SDS011;50118;53.232;8.252;2023-01-04T04:33:05;6.22;;;4.43;;
58242;SDS011;50118;53.232;8.252;2023-01-04T04:35:31;7.18;;;4.90;;
58242;SDS011;50118;53.232;8.252;2023-01-04T04:37:56;8.48;;;4.97;;
58242;SDS011;50118;53.232;8.252;2023-01-04T04:40:22;7.20;;;5.05;;
58242;SDS011;50118;53.232;8.252;2023-01-04T04:43:06;6.72;;;4.97;;
58242;SDS011;50118;53.232;8.252;2023-01-04T04:45:32;7.45;;;5.28;;
58242;SDS011;50118;53.232;8.252;2023-01-04T04:47:58;6.60;;;4.50;;
58242;SDS011;50118;53.232;8.252;2023-01-04T04:50:23;8.85;;;5.03;;
58242;SDS011;50118;53.232;8.252;2023-01-04T04:52:48;7.88;;;5.10;;
58242;SDS011;50118;53.232;8.252;2023-01-04T04:55:14;6.32;;;4.78;;
58242;SDS011;50118;53.232;8.252;2023-01-04T04:57:39;6.47;;;4.68;;
58242;SDS011;50118;53.232;8.252;2023-01-04T05:00:05;8.07;;;4.80;;
58242;SDS011;50118;53.232;8.252;2023-01-04T05:02:32;6.32;;;4.40;;
58242;SDS011;50118;53.232;8.252;2023-01-04T05:04:57;7.70;;;4.68;;
58242;SDS011;50118;53.232;8.252;2023-01-04T05:07:22;6.97;;;4.50;;
58242;SDS011;50118;53.232;8.252;2023-01-04T05:09:48;7.43;;;4.72;;
58242;SDS011;50118;53.232;8.252;2023-01-04T05:12:13;6.28;;;4.65;;
58242;SDS011;50118;53.232;8.252;2023-01-04T05:14:57;5.85;;;4.07;;
58242;SDS011;50118;53.232;8.252;2023-01-04T05:17:23;6.20;;;4.68;;
58242;SDS011;50118;53.232;8.252;2023-01-04T05:19:48;8.27;;;4.88;;
58242;SDS011;50118;53.232;8.252;2023-01-04T05:22:13;7.82;;;4.70;;
58242;SDS011;50118;53.232;8.252;2023-01-04T05:24:39;6.10;;;4.30;;
58242;SDS011;50118;53.232;8.252;2023-01-04T05:27:04;5.90;;;4.53;;
58242;SDS011;50118;53.232;8.252;2023-01-04T05:29:29;7.53;;;5.22;;
58242;SDS011;50118;53.232;8.252;2023-01-04T05:32:13;6.50;;;4.88;;
58242;SDS011;50118;53.232;8.252;2023-01-04T05:34:39;6.13;;;4.60;;
58242;SDS011;50118;53.232;8.252;2023-01-04T05:37:04;6.28;;;4.28;;
58242;SDS011;50118;53.232;8.252;2023-01-04T05:39:29;6.95;;;5.10;;
58242;SDS011;50118;53.232;8.252;2023-01-04T05:41:55;6.80;;;3.90;;
58242;SDS011;50118;53.232;8.252;2023-01-04T05:44:39;6.22;;;4.10;;
58242;SDS011;50118;53.232;8.252;2023-01-04T05:47:04;5.70;;;4.25;;
58242;SDS011;50118;53.232;8.252;2023-01-04T05:49:29;6.30;;;4.60;;
58242;SDS011;50118;53.232;8.252;2023-01-04T05:51:55;5.78;;;4.00;;
58242;SDS011;50118;53.232;8.252;2023-01-04T05:54:20;5.93;;;4.50;;
58242;SDS011;50118;53.232;8.252;2023-01-04T05:56:46;5.25;;;3.97;;
58242;SDS011;50118;53.232;8.252;2023-01-04T05:59:11;6.15;;;4.05;;
58242;SDS011;50118;53.232;8.252;2023-01-04T06:01:36;4.75;;;3.45;;
58242;SDS011;50118;53.232;8.252;2023-01-04T06:04:02;5.00;;;3.67;;
58242;SDS011;50118;53.232;8.252;2023-01-04T06:06:27;4.53;;;3.33;;
58242;SDS011;50118;53.232;8.252;2023-01-04T06:08:52;4.40;;;3.35;;
58242;SDS011;50118;53.232;8.252;2023-01-04T06:11:18;4.47;;;3.65;;
58242;SDS011;50118;53.232;8.252;2023-01-04T06:13:43;4.53;;;2.92;;
58242;SDS011;50118;53.232;8.252;2023-01-04T06:16:09;5.53;;;3.22;;
58242;SDS011;50118;53.232;8.252;2023-01-04T06:18:34;5.38;;;3.20;;
58242;SDS011;50118;53.232;8.252;2023-01-04T06:20:59;5.60;;;3.20;;
58242;SDS011;50118;53.232;8.252;2023-01-04T06:23:25;4.30;;;3.00;;
58242;SDS011;50118;53.232;8.252;2023-01-04T06:25:50;4.10;;;3.10;;
58242;SDS011;50118;53.232;8.252;2023-01-04T06:28:15;6.40;;;3.75;;
58242;SDS011;50118;53.232;8.252;2023-01-04T06:30:41;5.93;;;3.55;;
58242;SDS011;50118;53.232;8.252;2023-01-04T06:33:06;4.57;;;3.53;;
58242;SDS011;50118;53.232;8.252;2023-01-04T06:35:32;5.60;;;3.30;;
58242;SDS011;50118;53.232;8.252;2023-01-04T06:37:59;4.25;;;2.90;;
58242;SDS011;50118;53.232;8.252;2023-01-04T06:40:24;4.30;;;2.70;;
58242;SDS011;50118;53.232;8.252;2023-01-04T06:42:50;4.45;;;2.65;;
58242;SDS011;50118;53.232;8.252;2023-01-04T06:45:15;3.67;;;2.60;;
58242;SDS011;50118;53.232;8.252;2023-01-04T06:47:41;3.60;;;2.80;;
58242;SDS011;50118;53.232;8.252;2023-01-04T06:50:06;4.72;;;2.72;;
58242;SDS011;50118;53.232;8.252;2023-01-04T06:52:32;3.78;;;2.50;;
58242;SDS011;50118;53.232;8.252;2023-01-04T06:54:58;4.25;;;2.60;;
58242;SDS011;50118;53.232;8.252;2023-01-04T06:57:30;3.75;;;2.33;;
58242;SDS011;50118;53.232;8.252;2023-01-04T06:59:56;3.38;;;2.28;;
58242;SDS011;50118;53.232;8.252;2023-01-04T07:02:21;4.70;;;2.38;;
58242;SDS011;50118;53.232;8.252;2023-01-04T07:04:47;3.38;;;2.58;;
58242;SDS011;50118;53.232;8.252;2023-01-04T07:07:12;4.25;;;2.40;;
58242;SDS011;50118;53.232;8.252;2023-01-04T07:09:38;3.80;;;2.50;;
58242;SDS011;50118;53.232;8.252;2023-01-04T07:12:04;4.85;;;2.25;;
58242;SDS011;50118;53.232;8.252;2023-01-04T07:14:30;2.85;;;2.10;;
58242;SDS011;50118;53.232;8.252;2023-01-04T07:16:55;3.60;;;2.20;;
58242;SDS011;50118;53.232;8.252;2023-01-04T07:19:20;3.30;;;2.10;;
58242;SDS011;50118;53.232;8.252;2023-01-04T07:21:46;3.10;;;2.00;;
58242;SDS011;50118;53.232;8.252;2023-01-04T07:24:11;4.38;;;2.95;;
58242;SDS011;50118;53.232;8.252;2023-01-04T07:26:43;4.90;;;2.63;;
58242;SDS011;50118;53.232;8.252;2023-01-04T07:29:10;3.83;;;2.60;;
58242;SDS011;50118;53.232;8.252;2023-01-04T07:31:48;3.88;;;2.38;;
58242;SDS011;50118;53.232;8.252;2023-01-04T07:34:16;3.13;;;2.13;;
58242;SDS011;50118;53.232;8.252;2023-01-04T07:36:42;4.95;;;2.25;;
58242;SDS011;50118;53.232;8.252;2023-01-04T07:39:08;3.70;;;2.10;;
58242;SDS011;50118;53.232;8.252;2023-01-04T07:41:37;4.28;;;2.50;;
58242;SDS011;50118;53.232;8.252;2023-01-04T07:44:03;4.03;;;2.45;;
58242;SDS011;50118;53.232;8.252;2023-01-04T07:46:30;3.60;;;2.08;;
58242;SDS011;50118;53.232;8.252;2023-01-04T07:48:56;3.58;;;2.00;;
58242;SDS011;50118;53.232;8.252;2023-01-04T07:51:21;3.00;;;1.88;;
58242;SDS011;50118;53.232;8.252;2023-01-04T07:53:47;2.75;;;1.77;;
58242;SDS011;50118;53.232;8.252;2023-01-04T07:56:12;3.50;;;1.70;;
58242;SDS011;50118;53.232;8.252;2023-01-04T07:58:38;2.95;;;1.80;;
58242;SDS011;50118;53.232;8.252;2023-01-04T08:01:04;2.60;;;1.70;;
58242;SDS011;50118;53.232;8.252;2023-01-04T08:03:34;2.90;;;1.77;;
58242;SDS011;50118;53.232;8.252;2023-01-04T08:06:06;3.65;;;2.03;;
58242;SDS011;50118;53.232;8.252;2023-01-04T08:08:34;3.08;;;2.00;;
58242;SDS011;50118;53.232;8.252;2023-01-04T08:11:00;3.40;;;2.13;;
58242;SDS011;50118;53.232;8.252;2023-01-04T08:13:29;4.22;;;2.30;;
58242;SDS011;50118;53.232;8.252;2023-01-04T08:15:54;4.03;;;2.50;;
58242;SDS011;50118;53.232;8.252;2023-01-04T08:18:20;3.78;;;2.50;;
58242;SDS011;50118;53.232;8.252;2023-01-04T08:20:46;4.22;;;2.70;;
58242;SDS011;50118;53.232;8.252;2023-01-04T08:23:11;3.67;;;2.40;;
58242;SDS011;50118;53.232;8.252;2023-01-04T08:25:37;4.18;;;2.78;;
58242;SDS011;50118;53.232;8.252;2023-01-04T08:28:02;4.03;;;2.28;;
58242;SDS011;50118;53.232;8.252;2023-01-04T08:30:28;4.57;;;2.80;;
58242;SDS011;50118;53.232;8.252;2023-01-04T08:32:56;4.40;;;2.42;;
58242;SDS011;50118;53.232;8.252;2023-01-04T08:35:22;3.63;;;2.60;;
58242;SDS011;50118;53.232;8.252;2023-01-04T08:37:47;4.10;;;2.60;;
58242;SDS011;50118;53.232;8.252;2023-01-04T08:40:13;3.40;;;2.38;;
58242;SDS011;50118;53.232;8.252;2023-01-04T08:42:41;3.40;;;2.60;;
58242;SDS011;50118;53.232;8.252;2023-01-04T08:45:07;3.40;;;2.28;;
58242;SDS011;50118;53.232;8.252;2023-01-04T08:47:32;3.40;;;2.20;;
58242;SDS011;50118;53.232;8.252;2023-01-04T08:49:58;3.15;;;2.08;;
58242;SDS011;50118;53.232;8.252;2023-01-04T08:52:24;2.78;;;2.13;;
58242;SDS011;50118;53.232;8.252;2023-01-04T08:54:50;3.40;;;2.10;;
58242;SDS011;50118;53.232;8.252;2023-01-04T08:57:16;4.30;;;2.40;;
58242;SDS011;50118;53.232;8.252;2023-01-04T08:59:42;3.38;;;2.25;;
58242;SDS011;50118;53.232;8.252;2023-01-04T09:02:26;3.35;;;2.30;;
58242;SDS011;50118;53.232;8.252;2023-01-04T09:04:52;2.60;;;1.73;;
58242;SDS011;50118;53.232;8.252;2023-01-04T09:07:24;2.25;;;1.67;;
58242;SDS011;50118;53.232;8.252;2023-01-04T09:09:52;2.90;;;2.00;;
58242;SDS011;50118;53.232;8.252;2023-01-04T09:12:18;3.13;;;1.70;;
58242;SDS011;50118;53.232;8.252;2023-01-04T09:14:43;2.60;;;1.60;;
58242;SDS011;50118;53.232;8.252;2023-01-04T09:17:09;3.00;;;1.85;;
58242;SDS011;50118;53.232;8.252;2023-01-04T09:19:34;3.13;;;1.63;;
58242;SDS011;50118;53.232;8.252;2023-01-04T09:22:00;2.10;;;1.50;;
58242;SDS011;50118;53.232;8.252;2023-01-04T09:24:25;2.28;;;1.63;;
58242;SDS011;50118;53.232;8.252;2023-01-04T09:26:51;3.55;;;1.45;;
58242;SDS011;50118;53.232;8.252;2023-01-04T09:29:16;2.50;;;1.45;;
58242;SDS011;50118;53.232;8.252;2023-01-04T09:31:42;2.10;;;1.30;;
58242;SDS011;50118;53.232;8.252;2023-01-04T09:34:08;2.10;;;1.48;;
58242;SDS011;50118;53.232;8.252;2023-01-04T09:36:35;1.83;;;1.30;;
58242;SDS011;50118;53.232;8.252;2023-01-04T09:39:01;1.90;;;1.13;;
58242;SDS011;50118;53.232;8.252;2023-01-04T09:41:30;1.92;;;1.23;;
58242;SDS011;50118;53.232;8.252;2023-01-04T09:44:01;2.33;;;1.30;;
58242;SDS011;50118;53.232;8.252;2023-01-04T09:46:43;1.90;;;1.40;;
58242;SDS011;50118;53.232;8.252;2023-01-04T09:51:59;2.00;;;1.40;;
58242;SDS011;50118;53.232;8.252;2023-01-04T09:54:31;2.92;;;1.40;;
58242;SDS011;50118;53.232;8.252;2023-01-04T09:57:30;1.95;;;1.27;;
58242;SDS011;50118;53.232;8.252;2023-01-04T09:59:59;2.03;;;1.50;;
58242;SDS011;50118;53.232;8.252;2023-01-04T10:02:37;2.50;;;1.60;;
58242;SDS011;50118;53.232;8.252;2023-01-04T10:05:06;2.83;;;1.48;;
58242;SDS011;50118;53.232;8.252;2023-01-04T10:07:38;3.15;;;1.60;;
58242;SDS011;50118;53.232;8.252;2023-01-04T10:10:05;2.50;;;1.50;;
58242;SDS011;50118;53.232;8.252;2023-01-04T10:15:39;2.00;;;1.40;;
58242;SDS011;50118;53.232;8.252;2023-01-04T10:26:50;2.78;;;1.88;;
58242;SDS011;50118;53.232;8.252;2023-01-04T10:34:31;3.00;;;2.00;;
58242;SDS011;50118;53.232;8.252;2023-01-04T10:37:08;5.43;;;2.53;;
58242;SDS011;50118;53.232;8.252;2023-01-04T10:39:38;4.10;;;2.10;;
58242;SDS011;50118;53.232;8.252;2023-01-04T10:51:03;3.88;;;1.90;;
58242;SDS011;50118;53.232;8.252;2023-01-04T11:06:40;2.30;;;1.70;;
58242;SDS011;50118;53.232;8.252;2023-01-04T11:09:21;2.15;;;1.50;;
58242;SDS011;50118;53.232;8.252;2023-01-04T11:11:50;2.17;;;1.55;;
58242;SDS011;50118;53.232;8.252;2023-01-04T11:14:20;1.85;;;1.40;;
58242;SDS011;50118;53.232;8.252;2023-01-04T11:16:47;2.85;;;1.52;;
58242;SDS011;50118;53.232;8.252;2023-01-04T11:19:15;3.13;;;1.50;;
58242;SDS011;50118;53.232;8.252;2023-01-04T11:21:58;3.38;;;1.50;;
58242;SDS011;50118;53.232;8.252;2023-01-04T11:24:30;1.67;;;1.20;;
58242;SDS011;50118;53.232;8.252;2023-01-04T11:26:57;3.20;;;1.20;;
58242;SDS011;50118;53.232;8.252;2023-01-04T11:29:36;1.65;;;1.30;;
58242;SDS011;50118;53.232;8.252;2023-01-04T11:34:55;1.00;;;0.93;;
58242;SDS011;50118;53.232;8.252;2023-01-04T11:37:22;1.88;;;1.10;;
58242;SDS011;50118;53.232;8.252;2023-01-04T11:42:44;1.60;;;1.10;;
58242;SDS011;50118;53.232;8.252;2023-01-04T11:45:16;1.95;;;1.40;;
58242;SDS011;50118;53.232;8.252;2023-01-04T11:47:50;2.40;;;1.33;;
58242;SDS011;50118;53.232;8.252;2023-01-04T11:50:37;3.38;;;1.80;;
58242;SDS011;50118;53.232;8.252;2023-01-04T11:55:48;3.75;;;1.90;;
58242;SDS011;50118;53.232;8.252;2023-01-04T11:58:14;4.10;;;1.70;;
58242;SDS011;50118;53.232;8.252;2023-01-04T12:00:54;4.35;;;1.80;;
58242;SDS011;50118;53.232;8.252;2023-01-04T12:05:52;3.83;;;2.22;;
58242;SDS011;50118;53.232;8.252;2023-01-04T12:10:54;6.82;;;2.40;;
58242;SDS011;50118;53.232;8.252;2023-01-04T12:13:21;4.72;;;2.45;;
58242;SDS011;50118;53.232;8.252;2023-01-04T12:18:35;5.03;;;2.97;;
58242;SDS011;50118;53.232;8.252;2023-01-04T12:21:04;6.85;;;2.50;;
58242;SDS011;50118;53.232;8.252;2023-01-04T12:23:30;5.53;;;2.90;;
58242;SDS011;50118;53.232;8.252;2023-01-04T12:25:58;5.15;;;2.58;;
58242;SDS011;50118;53.232;8.252;2023-01-04T12:28:37;7.00;;;2.63;;
58242;SDS011;50118;53.232;8.252;2023-01-04T12:47:00;6.30;;;3.08;;
58242;SDS011;50118;53.232;8.252;2023-01-04T12:52:45;9.67;;;4.23;;
58242;SDS011;50118;53.232;8.252;2023-01-04T12:57:58;13.32;;;4.55;;
58242;SDS011;50118;53.232;8.252;2023-01-04T13:05:57;8.82;;;2.70;;
58242;SDS011;50118;53.232;8.252;2023-01-04T13:08:25;5.32;;;2.13;;
58242;SDS011;50118;53.232;8.252;2023-01-04T13:10:53;10.63;;;3.05;;
58242;SDS011;50118;53.232;8.252;2023-01-04T13:14:05;6.05;;;2.35;;
58242;SDS011;50118;53.232;8.252;2023-01-04T13:16:26;6.80;;;2.17;;
58242;SDS011;50118;53.232;8.252;2023-01-04T13:19:11;8.57;;;2.35;;
58242;SDS011;50118;53.232;8.252;2023-01-04T13:21:48;5.47;;;2.38;;
58242;SDS011;50118;53.232;8.252;2023-01-04T13:24:32;6.97;;;2.50;;
58242;SDS011;50118;53.232;8.252;2023-01-04T13:27:05;7.78;;;2.30;;
58242;SDS011;50118;53.232;8.252;2023-01-04T13:29:33;5.72;;;2.10;;
58242;SDS011;50118;53.232;8.252;2023-01-04T13:32:03;6.13;;;2.47;;
58242;SDS011;50118;53.232;8.252;2023-01-04T13:34:37;6.95;;;2.35;;
58242;SDS011;50118;53.232;8.252;2023-01-04T13:39:48;10.15;;;2.22;;
58242;SDS011;50118;53.232;8.252;2023-01-04T13:45:14;11.07;;;2.50;;
58242;SDS011;50118;53.232;8.252;2023-01-04T13:48:03;11.68;;;2.30;;
58242;SDS011;50118;53.232;8.252;2023-01-04T13:50:37;8.35;;;2.30;;
58242;SDS011;50118;53.232;8.252;2023-01-04T13:53:15;9.82;;;2.42;;
58242;SDS011;50118;53.232;8.252;2023-01-04T13:55:43;9.75;;;2.63;;
58242;SDS011;50118;53.232;8.252;2023-01-04T13:58:15;10.73;;;2.38;;
58242;SDS011;50118;53.232;8.252;2023-01-04T14:00:53;10.50;;;2.67;;
58242;SDS011;50118;53.232;8.252;2023-01-04T14:03:48;8.32;;;2.00;;
58242;SDS011;50118;53.232;8.252;2023-01-04T14:08:58;9.80;;;1.80;;
58242;SDS011;50118;53.232;8.252;2023-01-04T14:11:41;9.13;;;1.88;;
58242;SDS011;50118;53.232;8.252;2023-01-04T14:14:38;6.90;;;2.00;;
58242;SDS011;50118;53.232;8.252;2023-01-04T14:22:16;7.38;;;2.28;;
58242;SDS011;50118;53.232;8.252;2023-01-04T14:24:45;7.78;;;1.90;;
58242;SDS011;50118;53.232;8.252;2023-01-04T14:36:02;8.45;;;2.22;;
58242;SDS011;50118;53.232;8.252;2023-01-04T14:38:28;6.43;;;1.70;;
58242;SDS011;50118;53.232;8.252;2023-01-04T14:40:54;6.93;;;1.55;;
58242;SDS011;50118;53.232;8.252;2023-01-04T14:43:33;9.50;;;1.77;;
58242;SDS011;50118;53.232;8.252;2023-01-04T14:46:09;7.22;;;2.03;;
58242;SDS011;50118;53.232;8.252;2023-01-04T14:48:35;8.30;;;2.10;;
58242;SDS011;50118;53.232;8.252;2023-01-04T14:51:00;7.80;;;2.35;;
58242;SDS011;50118;53.232;8.252;2023-01-04T14:53:27;7.88;;;1.70;;
58242;SDS011;50118;53.232;8.252;2023-01-04T14:55:52;6.65;;;1.80;;
58242;SDS011;50118;53.232;8.252;2023-01-04T14:58:19;8.85;;;1.95;;
58242;SDS011;50118;53.232;8.252;2023-01-04T15:00:45;7.43;;;1.80;;
58242;SDS011;50118;53.232;8.252;2023-01-04T15:03:10;7.05;;;1.90;;
58242;SDS011;50118;53.232;8.252;2023-01-04T15:05:36;9.10;;;2.03;;
58242;SDS011;50118;53.232;8.252;2023-01-04T15:08:01;7.95;;;2.10;;
58242;SDS011;50118;53.232;8.252;2023-01-04T15:10:27;10.90;;;2.30;;
58242;SDS011;50118;53.232;8.252;2023-01-04T15:12:54;9.10;;;2.35;;
58242;SDS011;50118;53.232;8.252;2023-01-04T15:15:24;12.60;;;2.80;;
58242;SDS011;50118;53.232;8.252;2023-01-04T15:17:50;11.70;;;2.20;;
58242;SDS011;50118;53.232;8.252;2023-01-04T15:20:15;10.43;;;2.40;;
58242;SDS011;50118;53.232;8.252;2023-01-04T15:22:41;14.60;;;2.75;;
58242;SDS011;50118;53.232;8.252;2023-01-04T15:25:08;6.75;;;2.45;;
58242;SDS011;50118;53.232;8.252;2023-01-04T15:27:35;11.40;;;2.20;;
58242;SDS011;50118;53.232;8.252;2023-01-04T15:30:00;11.23;;;2.47;;
58242;SDS011;50118;53.232;8.252;2023-01-04T15:32:26;12.70;;;2.45;;
58242;SDS011;50118;53.232;8.252;2023-01-04T15:34:51;12.70;;;2.38;;
58242;SDS011;50118;53.232;8.252;2023-01-04T15:37:17;16.35;;;2.88;;
58242;SDS011;50118;53.232;8.252;2023-01-04T15:39:44;9.70;;;2.53;;
58242;SDS011;50118;53.232;8.252;2023-01-04T15:42:10;11.10;;;3.85;;
58242;SDS011;50118;53.232;8.252;2023-01-04T15:44:55;11.27;;;2.97;;
58242;SDS011;50118;53.232;8.252;2023-01-04T15:47:20;9.90;;;2.40;;
58242;SDS011;50118;53.232;8.252;2023-01-04T15:49:46;9.93;;;2.63;;
58242;SDS011;50118;53.232;8.252;2023-01-04T15:52:11;14.88;;;2.83;;
58242;SDS011;50118;53.232;8.252;2023-01-04T15:54:37;14.25;;;3.05;;
58242;SDS011;50118;53.232;8.252;2023-01-04T15:57:02;12.07;;;2.95;;
58242;SDS011;50118;53.232;8.252;2023-01-04T15:59:28;19.98;;;3.10;;
58242;SDS011;50118;53.232;8.252;2023-01-04T16:01:53;12.52;;;2.55;;
58242;SDS011;50118;53.232;8.252;2023-01-04T16:04:19;10.98;;;2.85;;
58242;SDS011;50118;53.232;8.252;2023-01-04T16:06:44;15.50;;;3.10;;
58242;SDS011;50118;53.232;8.252;2023-01-04T16:09:09;13.98;;;2.63;;
58242;SDS011;50118;53.232;8.252;2023-01-04T16:11:35;14.00;;;2.80;;
58242;SDS011;50118;53.232;8.252;2023-01-04T16:14:01;14.65;;;3.20;;
58242;SDS011;50118;53.232;8.252;2023-01-04T16:16:27;13.15;;;2.60;;
58242;SDS011;50118;53.232;8.252;2023-01-04T16:18:53;13.48;;;2.33;;
58242;SDS011;50118;53.232;8.252;2023-01-04T16:21:21;17.20;;;3.13;;
58242;SDS011;50118;53.232;8.252;2023-01-04T16:23:52;15.15;;;3.05;;
58242;SDS011;50118;53.232;8.252;2023-01-04T16:26:19;12.82;;;3.17;;
58242;SDS011;50118;53.232;8.252;2023-01-04T16:28:48;15.40;;;3.00;;
58242;SDS011;50118;53.232;8.252;2023-01-04T16:31:17;12.68;;;2.83;;
58242;SDS011;50118;53.232;8.252;2023-01-04T16:33:43;14.60;;;2.85;;
58242;SDS011;50118;53.232;8.252;2023-01-04T16:36:11;17.27;;;2.83;;
58242;SDS011;50118;53.232;8.252;2023-01-04T16:38:38;14.32;;;2.63;;
58242;SDS011;50118;53.232;8.252;2023-01-04T16:41:06;13.98;;;3.20;;
58242;SDS011;50118;53.232;8.252;2023-01-04T16:43:40;15.95;;;3.30;;
58242;SDS011;50118;53.232;8.252;2023-01-04T16:46:23;19.52;;;3.38;;
58242;SDS011;50118;53.232;8.252;2023-01-04T16:49:01;12.25;;;2.83;;
58242;SDS011;50118;53.232;8.252;2023-01-04T16:51:30;19.52;;;3.50;;
58242;SDS011;50118;53.232;8.252;2023-01-04T16:53:57;15.85;;;2.70;;
58242;SDS011;50118;53.232;8.252;2023-01-04T16:56:25;18.00;;;3.08;;
58242;SDS011;50118;53.232;8.252;2023-01-04T16:58:50;14.20;;;3.20;;
58242;SDS011;50118;53.232;8.252;2023-01-04T17:01:17;13.40;;;2.80;;
58242;SDS011;50118;53.232;8.252;2023-01-04T17:03:44;13.02;;;2.65;;
58242;SDS011;50118;53.232;8.252;2023-01-04T17:06:15;17.42;;;2.85;;
58242;SDS011;50118;53.232;8.252;2023-01-04T17:08:42;18.17;;;2.97;;
58242;SDS011;50118;53.232;8.252;2023-01-04T17:11:10;10.30;;;2.60;;
58242;SDS011;50118;53.232;8.252;2023-01-04T17:13:41;11.53;;;3.10;;
58242;SDS011;50118;53.232;8.252;2023-01-04T17:16:07;16.90;;;3.20;;
58242;SDS011;50118;53.232;8.252;2023-01-04T17:18:33;16.70;;;2.65;;
58242;SDS011;50118;53.232;8.252;2023-01-04T17:21:13;15.55;;;2.83;;